createdAt,value
2023-03-06T00:02:25.189Z,15.30
2023-03-06T00:04:53.245Z,17.40
2023-03-06T00:07:19.936Z,15.67
2023-03-06T00:09:46.602Z,17.00
2023-03-06T00:12:13.233Z,15.47
2023-03-06T00:14:39.839Z,15.90
2023-03-06T00:17:06.466Z,16.57
2023-03-06T00:19:33.119Z,15.60
2023-03-06T00:21:59.857Z,16.37
2023-03-06T00:24:26.467Z,14.60
2023-03-06T00:26:53.091Z,15.83
2023-03-06T00:29:19.713Z,14.57
2023-03-06T00:31:47.954Z,16.17
2023-03-06T00:34:14.983Z,15.67
2023-03-06T00:36:42.010Z,16.00
2023-03-06T00:39:08.611Z,15.40
2023-03-06T00:41:35.324Z,14.77
2023-03-06T00:44:01.966Z,14.17
2023-03-06T00:46:28.593Z,14.10
2023-03-06T00:48:55.225Z,15.90
2023-03-06T00:51:22.012Z,15.67
2023-03-06T00:53:48.680Z,15.93
2023-03-06T00:56:15.436Z,14.33
2023-03-06T00:58:42.070Z,17.33
2023-03-06T01:01:08.885Z,14.80
2023-03-06T01:03:35.578Z,15.77
2023-03-06T01:06:02.215Z,15.77
2023-03-06T01:08:28.948Z,15.87
2023-03-06T01:10:55.690Z,15.97
2023-03-06T01:13:22.327Z,15.37
2023-03-06T01:15:49.012Z,14.53
2023-03-06T01:18:15.645Z,14.33
2023-03-06T01:20:42.309Z,17.07
2023-03-06T01:23:08.951Z,15.07
2023-03-06T01:25:35.588Z,15.30
2023-03-06T01:28:02.255Z,16.47
2023-03-06T01:30:28.886Z,17.10
2023-03-06T01:32:55.608Z,15.43
2023-03-06T01:35:22.396Z,16.07
2023-03-06T01:37:49.049Z,15.53
2023-03-06T01:40:15.740Z,14.90
2023-03-06T01:42:42.440Z,14.77
2023-03-06T01:45:15.182Z,15.43
2023-03-06T01:47:41.844Z,16.20
2023-03-06T01:50:09.687Z,14.77
2023-03-06T01:52:43.758Z,13.23
2023-03-06T01:55:13.289Z,15.27
2023-03-06T01:57:44.701Z,15.90
2023-03-06T02:00:16.490Z,13.30
2023-03-06T02:02:45.379Z,15.23
2023-03-06T02:05:12.135Z,14.70
2023-03-06T02:07:38.831Z,15.30
2023-03-06T02:10:06.095Z,13.93
2023-03-06T02:12:32.727Z,15.27
2023-03-06T02:14:59.437Z,15.03
2023-03-06T02:17:26.074Z,14.63
2023-03-06T02:19:56.029Z,14.07
2023-03-06T02:22:22.774Z,13.33
2023-03-06T02:24:56.870Z,14.20
2023-03-06T02:27:24.122Z,15.17
2023-03-06T02:29:50.776Z,14.20
2023-03-06T02:32:17.459Z,15.23
2023-03-06T02:34:54.184Z,12.63
2023-03-06T02:37:21.116Z,13.10
2023-03-06T02:39:50.381Z,13.13
2023-03-06T02:42:21.405Z,12.33
2023-03-06T02:44:48.421Z,14.23
2023-03-06T02:47:15.134Z,13.87
2023-03-06T02:49:41.765Z,11.43
2023-03-06T02:52:08.460Z,14.00
2023-03-06T02:54:35.144Z,12.83
2023-03-06T02:57:01.912Z,14.17
2023-03-06T02:59:28.524Z,14.27
2023-03-06T03:01:55.146Z,14.23
2023-03-06T03:04:21.794Z,14.37
2023-03-06T03:06:48.437Z,13.93
2023-03-06T03:09:15.074Z,14.10
2023-03-06T03:11:41.841Z,14.67
2023-03-06T03:14:08.560Z,13.27
2023-03-06T03:16:35.992Z,14.03
2023-03-06T03:19:03.660Z,14.17
2023-03-06T03:21:30.301Z,12.40
2023-03-06T03:23:56.929Z,13.03
2023-03-06T03:26:23.548Z,14.43
2023-03-06T03:28:50.326Z,14.17
2023-03-06T03:31:17.161Z,13.17
2023-03-06T03:33:44.014Z,14.90
2023-03-06T03:36:10.779Z,13.17
2023-03-06T03:38:37.436Z,14.40
2023-03-06T03:41:04.428Z,13.70
2023-03-06T03:43:31.569Z,13.60
2023-03-06T03:45:58.351Z,13.07
2023-03-06T03:48:25.070Z,14.07
2023-03-06T03:50:51.805Z,15.43
2023-03-06T03:53:18.424Z,14.07
2023-03-06T03:55:47.321Z,12.60
2023-03-06T03:58:14.085Z,13.47
2023-03-06T04:00:40.744Z,13.33
2023-03-06T04:03:07.347Z,13.03
2023-03-06T04:05:33.979Z,15.40
2023-03-06T04:08:03.060Z,15.03
2023-03-06T04:10:29.729Z,14.17
2023-03-06T04:12:56.586Z,15.60
2023-03-06T04:15:23.376Z,14.80
2023-03-06T04:17:50.077Z,13.17
2023-03-06T04:20:16.834Z,13.33
2023-03-06T04:22:43.497Z,14.60
2023-03-06T04:25:10.354Z,14.17
2023-03-06T04:27:37.085Z,13.30
2023-03-06T04:30:05.232Z,13.67
2023-03-06T04:32:31.875Z,12.30
2023-03-06T04:34:58.542Z,15.50
2023-03-06T04:37:25.797Z,14.97
2023-03-06T04:39:52.425Z,13.90
2023-03-06T04:42:19.169Z,14.73
2023-03-06T04:44:45.852Z,13.80
2023-03-06T04:47:12.644Z,14.90
2023-03-06T04:49:39.312Z,15.33
2023-03-06T04:52:06.341Z,13.60
2023-03-06T04:54:33.191Z,13.83
2023-03-06T04:57:00.005Z,13.70
2023-03-06T04:59:26.741Z,13.00
2023-03-06T05:01:54.017Z,13.77
2023-03-06T05:04:20.649Z,13.57
2023-03-06T05:06:48.308Z,14.20
2023-03-06T05:09:14.939Z,13.50
2023-03-06T05:11:41.776Z,12.07
2023-03-06T05:14:08.507Z,14.47
2023-03-06T05:16:36.144Z,13.70
2023-03-06T05:19:02.853Z,13.23
2023-03-06T05:21:29.544Z,14.80
2023-03-06T05:23:56.390Z,14.03
2023-03-06T05:26:23.016Z,12.13
2023-03-06T05:28:49.982Z,13.30
2023-03-06T05:31:16.881Z,13.60
2023-03-06T05:33:43.663Z,14.97
2023-03-06T05:36:10.392Z,12.37
2023-03-06T05:38:37.140Z,13.00
2023-03-06T05:41:03.892Z,13.27
2023-03-06T05:43:30.521Z,14.00
2023-03-06T05:46:04.173Z,13.50
2023-03-06T05:48:30.978Z,13.47
2023-03-06T05:51:01.279Z,12.67
2023-03-06T05:53:29.262Z,13.93
2023-03-06T05:56:06.721Z,12.77
2023-03-06T05:58:33.527Z,13.83
2023-03-06T06:01:00.399Z,12.37
2023-03-06T06:03:27.318Z,13.43
2023-03-06T06:05:54.076Z,13.57
2023-03-06T06:08:20.787Z,12.23
2023-03-06T06:10:47.551Z,11.97
2023-03-06T06:13:14.238Z,11.70
2023-03-06T06:15:40.986Z,13.90
2023-03-06T06:18:08.059Z,11.90
2023-03-06T06:20:35.505Z,11.30
2023-03-06T06:23:02.285Z,13.70
2023-03-06T06:25:28.946Z,13.67
2023-03-06T06:27:56.542Z,12.67
2023-03-06T06:30:23.423Z,13.30
2023-03-06T06:32:50.188Z,13.40
2023-03-06T06:35:16.906Z,12.43
2023-03-06T06:37:43.517Z,11.60
2023-03-06T06:40:10.831Z,11.10
2023-03-06T06:42:40.172Z,11.90
2023-03-06T06:45:10.650Z,12.07
2023-03-06T06:47:41.223Z,11.83
2023-03-06T06:50:12.896Z,12.37
2023-03-06T06:52:39.674Z,12.40
2023-03-06T06:55:06.736Z,14.03
2023-03-06T06:57:33.362Z,13.47
2023-03-06T07:00:00.054Z,12.47
2023-03-06T07:02:26.897Z,12.43
2023-03-06T07:05:03.656Z,12.47
2023-03-06T07:07:33.367Z,12.33
2023-03-06T07:10:00.048Z,12.13
2023-03-06T07:12:26.707Z,13.50
2023-03-06T07:14:53.310Z,13.60
2023-03-06T07:17:20.032Z,12.27
2023-03-06T07:19:46.708Z,14.13
2023-03-06T07:22:13.514Z,13.17
2023-03-06T07:24:40.231Z,12.67
2023-03-06T07:27:06.915Z,13.63
2023-03-06T07:29:34.536Z,12.30
2023-03-06T07:32:01.332Z,11.97
2023-03-06T07:34:28.097Z,14.23
2023-03-06T07:36:54.724Z,14.93
2023-03-06T07:39:21.427Z,12.93
2023-03-06T07:41:48.076Z,12.63
2023-03-06T07:44:14.700Z,14.53
2023-03-06T07:46:41.605Z,15.33
2023-03-06T07:49:08.414Z,13.57
2023-03-06T07:51:35.035Z,15.57
2023-03-06T07:54:01.770Z,14.03
2023-03-06T07:56:28.413Z,13.43
2023-03-06T07:58:56.162Z,40.83
2023-03-06T08:01:24.151Z,30.83
2023-03-06T08:03:50.932Z,32.90
2023-03-06T08:06:19.514Z,27.63
2023-03-06T08:08:46.695Z,33.70
2023-03-06T08:11:14.296Z,29.73
2023-03-06T08:13:41.099Z,12.80
2023-03-06T08:16:08.157Z,14.50
2023-03-06T08:18:34.792Z,16.83
2023-03-06T08:21:11.950Z,13.57
2023-03-06T08:23:38.758Z,14.93
2023-03-06T08:26:07.601Z,15.53
2023-03-06T08:28:34.338Z,18.57
2023-03-06T08:31:08.495Z,20.00
2023-03-06T08:33:35.707Z,16.37
2023-03-06T08:36:02.551Z,14.30
2023-03-06T08:38:29.195Z,15.00
2023-03-06T08:40:55.889Z,15.50
2023-03-06T08:43:22.648Z,16.03
2023-03-06T08:45:56.158Z,14.20
2023-03-06T08:48:22.843Z,18.73
2023-03-06T08:50:49.622Z,15.77
2023-03-06T08:53:16.385Z,13.97
2023-03-06T08:55:43.035Z,15.97
2023-03-06T08:58:09.722Z,13.60
2023-03-06T09:00:36.959Z,15.17
2023-03-06T09:03:03.978Z,13.80
2023-03-06T09:05:30.713Z,14.80
2023-03-06T09:07:57.311Z,14.83
2023-03-06T09:10:24.831Z,14.40
2023-03-06T09:12:54.442Z,14.37
2023-03-06T09:15:22.082Z,15.63
2023-03-06T09:17:48.842Z,14.53
2023-03-06T09:20:15.630Z,15.03
2023-03-06T09:22:42.503Z,14.60
2023-03-06T09:25:10.162Z,14.70
2023-03-06T09:27:36.810Z,13.53
2023-03-06T09:30:03.651Z,13.70
2023-03-06T09:32:31.399Z,14.07
2023-03-06T09:34:58.026Z,14.53
2023-03-06T09:37:24.696Z,15.37
2023-03-06T09:39:51.291Z,15.20
2023-03-06T09:42:20.224Z,13.57
2023-03-06T09:44:51.150Z,15.03
2023-03-06T09:47:44.489Z,15.20
2023-03-06T09:50:33.101Z,14.03
2023-03-06T09:53:18.673Z,13.50
2023-03-06T09:56:00.930Z,16.13
2023-03-06T09:58:28.833Z,13.93
2023-03-06T10:01:06.486Z,13.73
2023-03-06T10:04:04.987Z,15.80
2023-03-06T10:06:34.624Z,13.40
2023-03-06T10:09:05.606Z,15.13
2023-03-06T10:11:43.652Z,14.30
2023-03-06T10:14:16.134Z,13.07
2023-03-06T10:16:42.821Z,14.27
2023-03-06T10:19:15.545Z,14.27
2023-03-06T10:22:17.586Z,12.80
2023-03-06T10:25:03.762Z,13.10
2023-03-06T10:27:40.917Z,12.60
2023-03-06T10:30:28.078Z,13.50
2023-03-06T10:33:08.611Z,13.47
2023-03-06T10:35:49.566Z,13.80
2023-03-06T10:38:23.067Z,11.50
2023-03-06T10:41:05.350Z,12.40
2023-03-06T10:43:34.038Z,11.80
2023-03-06T10:46:02.620Z,12.10
2023-03-06T10:48:30.038Z,12.10
2023-03-06T10:51:21.674Z,12.50
2023-03-06T10:53:59.093Z,10.03
2023-03-06T10:56:30.256Z,10.43
2023-03-06T10:59:19.900Z,10.23
2023-03-06T11:01:48.234Z,7.93
2023-03-06T11:04:20.624Z,7.93
2023-03-06T11:06:47.381Z,8.67
2023-03-06T11:09:24.671Z,8.30
2023-03-06T11:11:51.525Z,10.10
2023-03-06T11:14:20.835Z,9.37
2023-03-06T11:16:54.385Z,8.90
2023-03-06T11:19:22.868Z,9.87
2023-03-06T11:22:03.743Z,9.63
2023-03-06T11:24:39.196Z,9.47
2023-03-06T11:27:19.997Z,10.00
2023-03-06T11:29:48.230Z,9.80
2023-03-06T11:32:22.513Z,9.93
2023-03-06T11:35:03.296Z,11.03
2023-03-06T11:37:44.889Z,9.77
2023-03-06T11:40:11.553Z,9.30
2023-03-06T11:42:40.982Z,15.30
2023-03-06T11:45:27.667Z,12.40
2023-03-06T11:48:14.006Z,12.70
2023-03-06T11:50:46.448Z,18.53
2023-03-06T11:53:31.688Z,10.20
2023-03-06T11:56:31.488Z,10.10
2023-03-06T11:59:26.078Z,7.00
2023-03-06T12:01:56.484Z,7.87
2023-03-06T12:04:36.096Z,7.57
2023-03-06T12:07:27.365Z,6.90
2023-03-06T12:09:54.004Z,6.57
2023-03-06T12:12:36.491Z,5.83
2023-03-06T12:15:21.800Z,6.10
2023-03-06T12:18:23.550Z,6.30
2023-03-06T12:21:02.144Z,5.20
2023-03-06T12:24:14.164Z,8.70
2023-03-06T12:26:49.391Z,10.40
2023-03-06T12:29:34.592Z,8.50
2023-03-06T12:32:04.851Z,7.13
2023-03-06T12:35:10.093Z,6.90
2023-03-06T12:37:55.628Z,7.57
2023-03-06T12:41:04.249Z,7.10
2023-03-06T12:43:49.415Z,9.97
2023-03-06T12:46:20.645Z,7.23
2023-03-06T12:48:55.617Z,17.80
2023-03-06T12:51:22.321Z,13.50
2023-03-06T12:53:49.196Z,8.17
2023-03-06T12:56:16.381Z,10.63
2023-03-06T12:58:53.548Z,9.90
2023-03-06T13:01:43.182Z,9.20
2023-03-06T13:04:45.251Z,9.30
2023-03-06T13:07:36.353Z,9.27
2023-03-06T13:10:15.311Z,9.10
2023-03-06T13:13:01.121Z,8.37
2023-03-06T13:15:27.746Z,7.53
2023-03-06T13:17:54.374Z,7.47
2023-03-06T13:20:34.875Z,7.57
2023-03-06T13:23:29.889Z,9.03
2023-03-06T13:25:57.692Z,9.60
2023-03-06T13:28:26.261Z,7.87
2023-03-06T13:30:53.353Z,9.00
2023-03-06T13:33:36.285Z,8.90
2023-03-06T13:36:25.110Z,7.10
2023-03-06T13:38:51.849Z,7.27
2023-03-06T13:41:27.407Z,7.47
2023-03-06T13:43:55.646Z,7.50
2023-03-06T13:46:25.902Z,7.03
2023-03-06T13:49:07.892Z,7.03
2023-03-06T13:52:07.569Z,7.33
2023-03-06T13:54:48.088Z,8.50
2023-03-06T13:57:23.990Z,6.87
2023-03-06T13:59:56.895Z,6.93
2023-03-06T14:03:14.496Z,7.67
2023-03-06T14:05:45.735Z,7.13
2023-03-06T14:08:19.356Z,6.23
2023-03-06T14:10:47.044Z,6.57
2023-03-06T14:13:13.657Z,6.67
2023-03-06T14:15:45.893Z,7.07
2023-03-06T14:18:25.760Z,6.13
2023-03-06T14:20:58.847Z,7.50
2023-03-06T14:23:29.589Z,5.77
2023-03-06T14:26:19.932Z,6.30
2023-03-06T14:29:00.565Z,6.60
2023-03-06T14:31:34.410Z,7.83
2023-03-06T14:34:05.460Z,7.70
2023-03-06T14:36:47.661Z,8.63
2023-03-06T14:39:30.261Z,8.20
2023-03-06T14:42:19.388Z,8.17
2023-03-06T14:44:46.760Z,7.03
2023-03-06T14:47:29.560Z,7.70
2023-03-06T14:50:28.345Z,6.10
2023-03-06T14:52:59.098Z,5.90
2023-03-06T14:55:27.004Z,6.40
2023-03-06T14:58:03.415Z,5.40
2023-03-06T15:00:35.854Z,7.00
2023-03-06T15:03:03.891Z,5.70
2023-03-06T15:05:30.709Z,6.60
2023-03-06T15:08:03.421Z,4.83
2023-03-06T15:10:34.141Z,6.03
2023-03-06T15:13:21.516Z,6.93
2023-03-06T15:16:13.601Z,6.10
2023-03-06T15:19:02.215Z,7.00
2023-03-06T15:21:32.816Z,6.77
2023-03-06T15:23:59.637Z,6.13
2023-03-06T15:26:31.473Z,6.23
2023-03-06T15:29:10.249Z,6.87
2023-03-06T15:31:41.381Z,6.10
2023-03-06T15:34:09.220Z,5.60
2023-03-06T15:36:40.157Z,5.97
2023-03-06T15:39:35.506Z,6.10
2023-03-06T15:42:25.692Z,5.67
2023-03-06T15:44:56.595Z,4.87
2023-03-06T15:47:23.424Z,5.53
2023-03-06T15:49:52.506Z,6.50
2023-03-06T15:52:20.250Z,5.80
2023-03-06T15:54:46.994Z,7.13
2023-03-06T15:57:24.321Z,7.90
2023-03-06T15:59:51.198Z,4.73
2023-03-06T16:02:19.524Z,6.50
2023-03-06T16:04:46.244Z,6.90
2023-03-06T16:07:13.111Z,7.37
2023-03-06T16:09:41.326Z,7.63
2023-03-06T16:12:20.782Z,7.50
2023-03-06T16:14:47.958Z,5.70
2023-03-06T16:17:14.886Z,7.10
2023-03-06T16:19:41.837Z,7.47
2023-03-06T16:22:08.580Z,6.50
2023-03-06T16:24:35.234Z,7.23
2023-03-06T16:27:01.934Z,7.63
2023-03-06T16:29:29.294Z,6.97
2023-03-06T16:31:56.668Z,6.47
2023-03-06T16:34:23.717Z,7.47
2023-03-06T16:36:50.637Z,7.57
2023-03-06T16:39:18.678Z,6.63
2023-03-06T16:41:49.374Z,7.00
2023-03-06T16:44:16.423Z,7.20
2023-03-06T16:46:45.912Z,6.60
2023-03-06T16:49:23.238Z,8.17
2023-03-06T16:51:50.290Z,9.50
2023-03-06T16:54:17.064Z,7.73
2023-03-06T16:56:44.244Z,7.40
2023-03-06T16:59:11.329Z,6.83
2023-03-06T17:01:38.512Z,6.40
2023-03-06T17:04:05.344Z,8.17
2023-03-06T17:06:31.972Z,8.23
2023-03-06T17:08:59.723Z,7.13
2023-03-06T17:11:26.536Z,8.40
2023-03-06T17:13:54.732Z,8.60
2023-03-06T17:16:21.948Z,7.50
2023-03-06T17:18:49.577Z,7.07
2023-03-06T17:21:16.311Z,7.27
2023-03-06T17:23:43.169Z,7.60
2023-03-06T17:26:14.603Z,7.83
2023-03-06T17:28:41.419Z,7.10
2023-03-06T17:31:21.361Z,8.00
2023-03-06T17:33:48.568Z,7.67
2023-03-06T17:36:15.570Z,7.70
2023-03-06T17:38:42.659Z,6.37
2023-03-06T17:41:09.769Z,8.73
2023-03-06T17:43:37.034Z,8.23
2023-03-06T17:46:04.790Z,7.87
2023-03-06T17:48:31.509Z,9.20
2023-03-06T17:50:58.272Z,10.27
2023-03-06T17:53:25.072Z,13.47
2023-03-06T17:55:51.752Z,11.57
2023-03-06T17:58:18.516Z,9.83
2023-03-06T18:00:45.842Z,9.43
2023-03-06T18:03:12.600Z,8.67
2023-03-06T18:05:39.314Z,10.50
2023-03-06T18:08:08.182Z,8.90
2023-03-06T18:10:34.917Z,8.90
2023-03-06T18:13:01.674Z,7.90
2023-03-06T18:15:28.437Z,8.67
2023-03-06T18:17:56.724Z,8.43
2023-03-06T18:20:23.422Z,7.80
2023-03-06T18:22:50.056Z,8.53
2023-03-06T18:25:17.491Z,8.10
2023-03-06T18:27:44.356Z,9.80
2023-03-06T18:30:11.596Z,11.60
2023-03-06T18:32:38.343Z,10.20
2023-03-06T18:35:05.413Z,14.37
2023-03-06T18:37:32.071Z,15.73
2023-03-06T18:39:58.745Z,19.20
2023-03-06T18:42:26.191Z,19.83
2023-03-06T18:44:52.921Z,24.20
2023-03-06T18:47:19.570Z,39.33
2023-03-06T18:49:46.339Z,31.77
2023-03-06T18:52:12.966Z,18.20
2023-03-06T18:54:39.742Z,13.80
2023-03-06T18:57:06.521Z,11.50
2023-03-06T18:59:33.291Z,9.90
2023-03-06T19:02:00.036Z,13.10
2023-03-06T19:04:27.068Z,22.20
2023-03-06T19:06:54.856Z,12.37
2023-03-06T19:09:21.854Z,18.10
2023-03-06T19:11:48.859Z,9.83
2023-03-06T19:14:15.712Z,10.40
2023-03-06T19:16:42.545Z,8.20
2023-03-06T19:19:09.484Z,7.97
2023-03-06T19:21:36.204Z,9.30
2023-03-06T19:24:03.149Z,7.93
2023-03-06T19:26:29.773Z,7.97
2023-03-06T19:28:56.470Z,8.70
2023-03-06T19:31:25.407Z,7.73
2023-03-06T19:33:55.829Z,13.30
2023-03-06T19:36:27.767Z,13.30
2023-03-06T19:38:58.400Z,15.10
2023-03-06T19:41:25.214Z,13.90
2023-03-06T19:43:55.983Z,13.60
2023-03-06T19:46:22.890Z,13.90
2023-03-06T19:48:55.978Z,22.50
2023-03-06T19:51:22.724Z,23.07
2023-03-06T19:53:49.378Z,19.27
2023-03-06T19:56:18.121Z,17.90
2023-03-06T19:58:44.813Z,9.07
2023-03-06T20:01:16.508Z,11.03
2023-03-06T20:03:43.244Z,9.10
2023-03-06T20:06:14.288Z,8.53
2023-03-06T20:08:41.788Z,9.10
2023-03-06T20:11:21.848Z,10.77
2023-03-06T20:13:48.764Z,13.80
2023-03-06T20:16:16.303Z,11.40
2023-03-06T20:18:43.113Z,11.30
2023-03-06T20:21:09.850Z,10.80
2023-03-06T20:23:36.549Z,9.30
2023-03-06T20:26:05.038Z,9.43
2023-03-06T20:28:32.367Z,8.03
2023-03-06T20:30:59.027Z,9.20
2023-03-06T20:33:26.989Z,8.43
2023-03-06T20:35:54.173Z,27.30
2023-03-06T20:38:20.937Z,15.47
2023-03-06T20:40:47.659Z,21.50
2023-03-06T20:43:14.386Z,23.00
2023-03-06T20:45:41.086Z,19.33
2023-03-06T20:48:07.786Z,12.43
2023-03-06T20:50:34.475Z,8.73
2023-03-06T20:53:01.106Z,12.77
2023-03-06T20:55:27.750Z,10.00
2023-03-06T20:57:54.477Z,9.83
2023-03-06T21:00:21.381Z,10.10
2023-03-06T21:02:48.013Z,12.47
2023-03-06T21:05:14.806Z,12.80
2023-03-06T21:07:41.557Z,42.67
2023-03-06T21:10:09.204Z,24.90
2023-03-06T21:12:35.833Z,14.03
2023-03-06T21:15:02.533Z,11.13
2023-03-06T21:17:30.436Z,14.37
2023-03-06T21:19:58.348Z,26.23
2023-03-06T21:22:25.483Z,23.60
2023-03-06T21:24:52.128Z,27.77
2023-03-06T21:27:18.867Z,30.47
2023-03-06T21:29:45.771Z,32.13
2023-03-06T21:32:12.469Z,19.43
2023-03-06T21:34:39.141Z,20.67
2023-03-06T21:37:05.794Z,17.20
2023-03-06T21:39:32.426Z,20.10
2023-03-06T21:41:59.081Z,13.07
2023-03-06T21:44:25.827Z,10.87
2023-03-06T21:46:52.479Z,8.73
2023-03-06T21:49:19.128Z,11.13
2023-03-06T21:51:46.092Z,9.80
2023-03-06T21:54:13.105Z,10.87
2023-03-06T21:56:39.802Z,10.30
2023-03-06T21:59:06.456Z,9.70
2023-03-06T22:01:33.104Z,10.33
2023-03-06T22:04:00.135Z,9.90
2023-03-06T22:06:27.942Z,10.57
2023-03-06T22:08:55.261Z,10.70
2023-03-06T22:11:22.545Z,10.97
2023-03-06T22:13:49.331Z,9.37
2023-03-06T22:16:18.248Z,9.63
2023-03-06T22:18:45.952Z,9.57
2023-03-06T22:21:14.119Z,9.90
2023-03-06T22:23:40.785Z,9.30
2023-03-06T22:26:09.397Z,7.83
2023-03-06T22:28:36.385Z,8.70
2023-03-06T22:31:07.801Z,8.60
2023-03-06T22:33:34.553Z,8.37
2023-03-06T22:36:05.214Z,9.30
2023-03-06T22:38:36.083Z,8.30
2023-03-06T22:41:02.798Z,7.80
2023-03-06T22:43:29.470Z,8.70
2023-03-06T22:46:09.991Z,8.43
2023-03-06T22:48:36.788Z,9.13
2023-03-06T22:51:14.380Z,8.80
2023-03-06T22:53:41.022Z,8.20
2023-03-06T22:56:08.397Z,8.27
2023-03-06T22:58:38.382Z,8.57
2023-03-06T23:01:15.886Z,7.90
2023-03-06T23:03:47.282Z,8.37
2023-03-06T23:06:18.578Z,9.07
2023-03-06T23:08:48.901Z,8.10
2023-03-06T23:11:16.280Z,8.37
2023-03-06T23:13:43.069Z,8.27
2023-03-06T23:16:10.005Z,8.90
2023-03-06T23:18:37.629Z,9.57
2023-03-06T23:21:12.317Z,6.80
2023-03-06T23:23:39.179Z,7.90
2023-03-06T23:26:06.861Z,8.03
2023-03-06T23:28:34.786Z,8.20
2023-03-06T23:31:19.211Z,7.37
2023-03-06T23:33:45.932Z,8.20
2023-03-06T23:36:13.702Z,8.13
2023-03-06T23:38:40.614Z,8.10
2023-03-06T23:41:18.116Z,8.80
2023-03-06T23:43:45.615Z,8.40
2023-03-06T23:46:12.391Z,8.50
2023-03-06T23:48:39.672Z,9.00
2023-03-06T23:51:19.781Z,9.03
2023-03-06T23:53:46.820Z,7.87
2023-03-06T23:56:13.686Z,8.17
2023-03-06T23:58:40.749Z,8.20
